sensor_id;sensor_type;location;lat;lon;timestamp;pressure;altitude;pressure_sealevel;temperature;humidity
55424;BME280;41294;42.666;23.350;2023-06-26T00:01:14;94719.53;;;21.63;99.30
55424;BME280;41294;42.666;23.350;2023-06-26T00:03:40;94715.31;;;21.67;98.88
55424;BME280;41294;42.666;23.350;2023-06-26T00:06:05;94711.06;;;21.59;99.52
55424;BME280;41294;42.666;23.350;2023-06-26T00:08:31;94715.50;;;21.56;99.67
55424;BME280;41294;42.666;23.350;2023-06-26T00:10:56;94717.28;;;21.67;99.33
55424;BME280;41294;42.666;23.350;2023-06-26T00:13:23;94704.53;;;21.54;100.00
55424;BME280;41294;42.666;23.350;2023-06-26T00:15:50;94710.78;;;21.62;99.44
55424;BME280;41294;42.666;23.350;2023-06-26T00:18:15;94704.13;;;21.51;100.00
55424;BME280;41294;42.666;23.350;2023-06-26T00:20:40;94711.38;;;21.55;100.00
55424;BME280;41294;42.666;23.350;2023-06-26T00:23:06;94703.84;;;21.54;99.94
55424;BME280;41294;42.666;23.350;2023-06-26T00:25:33;94709.06;;;21.47;100.00
55424;BME280;41294;42.666;23.350;2023-06-26T00:27:59;94705.16;;;21.35;100.00
55424;BME280;41294;42.666;23.350;2023-06-26T00:30:24;94710.50;;;21.35;100.00
55424;BME280;41294;42.666;23.350;2023-06-26T00:32:50;94697.50;;;21.39;100.00
55424;BME280;41294;42.666;23.350;2023-06-26T00:35:16;94705.25;;;21.42;100.00
55424;BME280;41294;42.666;23.350;2023-06-26T00:37:41;94703.91;;;21.36;100.00
55424;BME280;41294;42.666;23.350;2023-06-26T00:40:07;94696.19;;;21.32;100.00
55424;BME280;41294;42.666;23.350;2023-06-26T00:42:33;94695.97;;;21.30;100.00
55424;BME280;41294;42.666;23.350;2023-06-26T00:44:58;94699.66;;;21.27;100.00
55424;BME280;41294;42.666;23.350;2023-06-26T00:47:23;94693.78;;;21.29;100.00
55424;BME280;41294;42.666;23.350;2023-06-26T00:49:50;94695.03;;;21.28;100.00
55424;BME280;41294;42.666;23.350;2023-06-26T00:52:16;94688.03;;;21.25;100.00
55424;BME280;41294;42.666;23.350;2023-06-26T00:54:42;94680.91;;;21.14;100.00
55424;BME280;41294;42.666;23.350;2023-06-26T00:57:07;94692.09;;;21.13;100.00
55424;BME280;41294;42.666;23.350;2023-06-26T00:59:34;94682.84;;;21.14;100.00
55424;BME280;41294;42.666;23.350;2023-06-26T01:01:59;94678.94;;;21.15;100.00
55424;BME280;41294;42.666;23.350;2023-06-26T01:04:25;94690.66;;;21.12;100.00
55424;BME280;41294;42.666;23.350;2023-06-26T01:06:54;94671.75;;;21.23;100.00
55424;BME280;41294;42.666;23.350;2023-06-26T01:09:21;94675.44;;;21.20;100.00
55424;BME280;41294;42.666;23.350;2023-06-26T01:11:47;94668.44;;;21.30;100.00
55424;BME280;41294;42.666;23.350;2023-06-26T01:14:12;94669.81;;;21.23;100.00
55424;BME280;41294;42.666;23.350;2023-06-26T01:16:40;94672.97;;;21.09;100.00
55424;BME280;41294;42.666;23.350;2023-06-26T01:19:11;94665.50;;;21.02;100.00
55424;BME280;41294;42.666;23.350;2023-06-26T01:21:42;94665.94;;;21.06;100.00
55424;BME280;41294;42.666;23.350;2023-06-26T01:24:18;94666.94;;;21.03;100.00
55424;BME280;41294;42.666;23.350;2023-06-26T01:26:49;94668.41;;;21.04;100.00
55424;BME280;41294;42.666;23.350;2023-06-26T01:29:16;94665.09;;;20.98;100.00
55424;BME280;41294;42.666;23.350;2023-06-26T01:31:43;94664.66;;;20.94;100.00
55424;BME280;41294;42.666;23.350;2023-06-26T01:34:12;94655.84;;;20.99;100.00
55424;BME280;41294;42.666;23.350;2023-06-26T01:36:38;94648.91;;;20.90;100.00
55424;BME280;41294;42.666;23.350;2023-06-26T01:39:04;94648.06;;;20.82;100.00
55424;BME280;41294;42.666;23.350;2023-06-26T01:41:29;94650.03;;;20.82;100.00
55424;BME280;41294;42.666;23.350;2023-06-26T01:46:38;94645.22;;;20.93;100.00
55424;BME280;41294;42.666;23.350;2023-06-26T01:49:18;94658.91;;;20.90;100.00
55424;BME280;41294;42.666;23.350;2023-06-26T01:55:06;94647.19;;;20.74;100.00
55424;BME280;41294;42.666;23.350;2023-06-26T01:57:35;94649.34;;;20.76;100.00
55424;BME280;41294;42.666;23.350;2023-06-26T02:00:01;94648.13;;;20.77;100.00
55424;BME280;41294;42.666;23.350;2023-06-26T02:02:28;94649.84;;;20.74;100.00
55424;BME280;41294;42.666;23.350;2023-06-26T02:04:54;94656.31;;;20.66;100.00
55424;BME280;41294;42.666;23.350;2023-06-26T02:07:19;94648.28;;;20.66;100.00
55424;BME280;41294;42.666;23.350;2023-06-26T02:09:45;94648.38;;;20.61;100.00
55424;BME280;41294;42.666;23.350;2023-06-26T02:12:10;94645.41;;;20.64;100.00
55424;BME280;41294;42.666;23.350;2023-06-26T02:14:36;94648.66;;;20.57;100.00
55424;BME280;41294;42.666;23.350;2023-06-26T02:17:02;94654.88;;;20.65;100.00
55424;BME280;41294;42.666;23.350;2023-06-26T02:19:27;94657.19;;;20.56;100.00
55424;BME280;41294;42.666;23.350;2023-06-26T02:21:54;94655.81;;;20.49;100.00
55424;BME280;41294;42.666;23.350;2023-06-26T02:24:19;94652.28;;;20.60;100.00
55424;BME280;41294;42.666;23.350;2023-06-26T02:26:45;94662.69;;;20.63;100.00
55424;BME280;41294;42.666;23.350;2023-06-26T02:29:11;94656.72;;;20.70;100.00
55424;BME280;41294;42.666;23.350;2023-06-26T02:31:36;94657.31;;;20.63;100.00
55424;BME280;41294;42.666;23.350;2023-06-26T02:34:03;94662.31;;;20.72;100.00
55424;BME280;41294;42.666;23.350;2023-06-26T02:36:28;94659.28;;;20.81;100.00
55424;BME280;41294;42.666;23.350;2023-06-26T02:38:54;94656.59;;;20.81;100.00
55424;BME280;41294;42.666;23.350;2023-06-26T02:41:19;94669.75;;;20.79;100.00
55424;BME280;41294;42.666;23.350;2023-06-26T02:43:44;94666.44;;;20.73;100.00
55424;BME280;41294;42.666;23.350;2023-06-26T02:46:10;94673.22;;;20.74;100.00
55424;BME280;41294;42.666;23.350;2023-06-26T02:48:35;94660.16;;;20.70;100.00
55424;BME280;41294;42.666;23.350;2023-06-26T02:51:01;94661.56;;;20.71;100.00
55424;BME280;41294;42.666;23.350;2023-06-26T02:53:26;94658.84;;;20.77;100.00
55424;BME280;41294;42.666;23.350;2023-06-26T02:55:51;94664.84;;;20.83;100.00
55424;BME280;41294;42.666;23.350;2023-06-26T02:58:17;94669.09;;;20.73;100.00
55424;BME280;41294;42.666;23.350;2023-06-26T03:00:42;94667.03;;;20.66;100.00
55424;BME280;41294;42.666;23.350;2023-06-26T03:03:09;94665.00;;;20.54;100.00
55424;BME280;41294;42.666;23.350;2023-06-26T03:05:34;94661.81;;;20.55;100.00
55424;BME280;41294;42.666;23.350;2023-06-26T03:07:59;94669.41;;;20.51;100.00
55424;BME280;41294;42.666;23.350;2023-06-26T03:10:25;94674.16;;;20.58;100.00
55424;BME280;41294;42.666;23.350;2023-06-26T03:12:50;94669.56;;;20.59;100.00
55424;BME280;41294;42.666;23.350;2023-06-26T03:15:16;94676.56;;;20.62;100.00
55424;BME280;41294;42.666;23.350;2023-06-26T03:17:41;94665.13;;;20.61;100.00
55424;BME280;41294;42.666;23.350;2023-06-26T03:20:07;94665.56;;;20.65;100.00
55424;BME280;41294;42.666;23.350;2023-06-26T03:22:33;94661.38;;;20.69;100.00
55424;BME280;41294;42.666;23.350;2023-06-26T03:24:59;94666.66;;;20.75;100.00
55424;BME280;41294;42.666;23.350;2023-06-26T03:27:24;94667.34;;;20.75;100.00
55424;BME280;41294;42.666;23.350;2023-06-26T03:29:52;94665.50;;;20.70;100.00
55424;BME280;41294;42.666;23.350;2023-06-26T03:32:18;94669.84;;;20.55;100.00
55424;BME280;41294;42.666;23.350;2023-06-26T03:34:43;94667.19;;;20.55;100.00
55424;BME280;41294;42.666;23.350;2023-06-26T03:37:08;94669.25;;;20.62;100.00
55424;BME280;41294;42.666;23.350;2023-06-26T03:39:34;94673.97;;;20.56;100.00
55424;BME280;41294;42.666;23.350;2023-06-26T03:41:59;94673.47;;;20.58;100.00
55424;BME280;41294;42.666;23.350;2023-06-26T03:44:26;94675.25;;;20.68;100.00
55424;BME280;41294;42.666;23.350;2023-06-26T03:46:52;94667.34;;;20.75;100.00
55424;BME280;41294;42.666;23.350;2023-06-26T03:49:17;94671.63;;;20.66;100.00
55424;BME280;41294;42.666;23.350;2023-06-26T03:51:44;94670.25;;;20.59;100.00
55424;BME280;41294;42.666;23.350;2023-06-26T03:54:09;94673.31;;;20.50;100.00
55424;BME280;41294;42.666;23.350;2023-06-26T03:56:35;94665.13;;;20.61;100.00
55424;BME280;41294;42.666;23.350;2023-06-26T03:59:00;94668.66;;;20.69;100.00
55424;BME280;41294;42.666;23.350;2023-06-26T04:01:26;94664.63;;;20.63;100.00
55424;BME280;41294;42.666;23.350;2023-06-26T04:03:51;94657.94;;;20.56;100.00
55424;BME280;41294;42.666;23.350;2023-06-26T04:06:17;94655.59;;;21.41;97.43
55424;BME280;41294;42.666;23.350;2023-06-26T04:08:42;94657.56;;;22.05;93.44
55424;BME280;41294;42.666;23.350;2023-06-26T04:11:08;94665.28;;;22.68;89.26
55424;BME280;41294;42.666;23.350;2023-06-26T04:13:33;94670.50;;;23.07;86.96
55424;BME280;41294;42.666;23.350;2023-06-26T04:15:59;94662.78;;;23.51;83.97
55424;BME280;41294;42.666;23.350;2023-06-26T04:18:24;94668.94;;;24.22;81.28
55424;BME280;41294;42.666;23.350;2023-06-26T04:21:09;94664.25;;;24.58;78.66
55424;BME280;41294;42.666;23.350;2023-06-26T04:23:37;94667.28;;;24.47;77.53
55424;BME280;41294;42.666;23.350;2023-06-26T04:26:03;94668.16;;;24.07;79.65
55424;BME280;41294;42.666;23.350;2023-06-26T04:28:30;94669.44;;;23.78;81.06
55424;BME280;41294;42.666;23.350;2023-06-26T04:30:56;94676.81;;;23.85;80.51
55424;BME280;41294;42.666;23.350;2023-06-26T04:33:21;94675.75;;;24.23;78.21
55424;BME280;41294;42.666;23.350;2023-06-26T04:35:47;94674.69;;;24.26;78.45
55424;BME280;41294;42.666;23.350;2023-06-26T04:38:14;94679.81;;;24.45;77.82
55424;BME280;41294;42.666;23.350;2023-06-26T04:40:40;94680.63;;;24.68;76.82
55424;BME280;41294;42.666;23.350;2023-06-26T04:43:06;94688.03;;;24.39;77.19
55424;BME280;41294;42.666;23.350;2023-06-26T04:45:31;94684.53;;;24.52;77.28
55424;BME280;41294;42.666;23.350;2023-06-26T04:47:57;94675.91;;;24.53;76.66
55424;BME280;41294;42.666;23.350;2023-06-26T04:50:23;94687.00;;;24.07;78.60
55424;BME280;41294;42.666;23.350;2023-06-26T04:52:48;94678.34;;;24.01;79.15
55424;BME280;41294;42.666;23.350;2023-06-26T04:55:13;94681.63;;;24.07;78.38
55424;BME280;41294;42.666;23.350;2023-06-26T04:57:39;94682.66;;;24.04;79.22
55424;BME280;41294;42.666;23.350;2023-06-26T05:00:05;94676.59;;;24.54;77.05
55424;BME280;41294;42.666;23.350;2023-06-26T05:02:35;94683.31;;;24.68;76.61
55424;BME280;41294;42.666;23.350;2023-06-26T05:05:01;94682.03;;;24.61;76.94
55424;BME280;41294;42.666;23.350;2023-06-26T05:07:26;94679.44;;;24.41;76.77
55424;BME280;41294;42.666;23.350;2023-06-26T05:09:52;94689.78;;;23.94;78.51
55424;BME280;41294;42.666;23.350;2023-06-26T05:12:17;94684.53;;;23.81;79.92
55424;BME280;41294;42.666;23.350;2023-06-26T05:14:43;94692.44;;;23.87;80.16
55424;BME280;41294;42.666;23.350;2023-06-26T05:17:08;94700.91;;;23.70;80.80
55424;BME280;41294;42.666;23.350;2023-06-26T05:19:34;94699.84;;;23.45;81.25
55424;BME280;41294;42.666;23.350;2023-06-26T05:22:00;94698.25;;;23.50;81.26
55424;BME280;41294;42.666;23.350;2023-06-26T05:24:30;94705.28;;;23.32;82.35
55424;BME280;41294;42.666;23.350;2023-06-26T05:26:56;94696.44;;;23.24;82.56
55424;BME280;41294;42.666;23.350;2023-06-26T05:29:22;94698.59;;;23.06;84.22
55424;BME280;41294;42.666;23.350;2023-06-26T05:31:48;94702.94;;;23.09;84.23
55424;BME280;41294;42.666;23.350;2023-06-26T05:34:15;94699.06;;;23.37;82.97
55424;BME280;41294;42.666;23.350;2023-06-26T05:36:42;94698.13;;;23.55;82.24
55424;BME280;41294;42.666;23.350;2023-06-26T05:39:09;94706.84;;;23.48;81.81
55424;BME280;41294;42.666;23.350;2023-06-26T05:41:34;94704.41;;;23.58;83.19
55424;BME280;41294;42.666;23.350;2023-06-26T05:44:00;94700.81;;;23.55;81.53
55424;BME280;41294;42.666;23.350;2023-06-26T05:46:25;94699.66;;;23.71;81.02
55424;BME280;41294;42.666;23.350;2023-06-26T05:48:51;94705.56;;;23.70;80.01
55424;BME280;41294;42.666;23.350;2023-06-26T05:51:16;94703.16;;;23.79;79.79
55424;BME280;41294;42.666;23.350;2023-06-26T05:53:42;94704.91;;;24.05;78.76
55424;BME280;41294;42.666;23.350;2023-06-26T05:56:08;94698.97;;;23.99;78.26
55424;BME280;41294;42.666;23.350;2023-06-26T05:58:35;94707.84;;;23.86;79.64
55424;BME280;41294;42.666;23.350;2023-06-26T06:01:00;94697.50;;;23.90;79.08
55424;BME280;41294;42.666;23.350;2023-06-26T06:03:27;94703.66;;;24.06;78.25
55424;BME280;41294;42.666;23.350;2023-06-26T06:05:52;94708.09;;;24.31;77.39
55424;BME280;41294;42.666;23.350;2023-06-26T06:08:18;94704.97;;;24.55;75.38
55424;BME280;41294;42.666;23.350;2023-06-26T06:10:43;94717.44;;;24.80;74.29
55424;BME280;41294;42.666;23.350;2023-06-26T06:13:09;94715.13;;;24.84;73.81
55424;BME280;41294;42.666;23.350;2023-06-26T06:15:34;94710.06;;;24.81;73.96
55424;BME280;41294;42.666;23.350;2023-06-26T06:17:59;94706.88;;;24.82;72.84
55424;BME280;41294;42.666;23.350;2023-06-26T06:20:25;94705.88;;;25.15;72.70
55424;BME280;41294;42.666;23.350;2023-06-26T06:22:50;94701.75;;;25.81;70.25
55424;BME280;41294;42.666;23.350;2023-06-26T06:25:16;94696.13;;;25.94;70.04
55424;BME280;41294;42.666;23.350;2023-06-26T06:27:41;94696.63;;;26.15;69.44
55424;BME280;41294;42.666;23.350;2023-06-26T06:30:08;94696.63;;;26.69;68.40
55424;BME280;41294;42.666;23.350;2023-06-26T06:32:34;94702.72;;;26.77;67.49
55424;BME280;41294;42.666;23.350;2023-06-26T06:34:59;94699.44;;;26.47;67.88
55424;BME280;41294;42.666;23.350;2023-06-26T06:37:24;94701.41;;;26.39;66.98
55424;BME280;41294;42.666;23.350;2023-06-26T06:39:51;94703.97;;;26.37;67.15
55424;BME280;41294;42.666;23.350;2023-06-26T06:42:17;94697.28;;;26.45;66.20
55424;BME280;41294;42.666;23.350;2023-06-26T06:44:42;94696.00;;;26.54;66.50
55424;BME280;41294;42.666;23.350;2023-06-26T06:47:08;94695.53;;;26.72;65.83
55424;BME280;41294;42.666;23.350;2023-06-26T06:49:33;94694.47;;;27.31;63.61
55424;BME280;41294;42.666;23.350;2023-06-26T06:51:58;94693.81;;;27.23;63.94
55424;BME280;41294;42.666;23.350;2023-06-26T06:54:26;94694.91;;;27.69;62.20
55424;BME280;41294;42.666;23.350;2023-06-26T06:56:51;94690.06;;;28.18;60.85
55424;BME280;41294;42.666;23.350;2023-06-26T06:59:17;94693.75;;;28.47;59.77
55424;BME280;41294;42.666;23.350;2023-06-26T07:01:42;94697.25;;;29.00;58.16
55424;BME280;41294;42.666;23.350;2023-06-26T07:04:07;94682.94;;;28.30;59.29
55424;BME280;41294;42.666;23.350;2023-06-26T07:06:33;94680.66;;;28.53;58.20
55424;BME280;41294;42.666;23.350;2023-06-26T07:08:59;94687.75;;;29.18;56.57
55424;BME280;41294;42.666;23.350;2023-06-26T07:11:24;94687.41;;;29.05;56.78
55424;BME280;41294;42.666;23.350;2023-06-26T07:13:50;94682.56;;;29.03;56.22
55424;BME280;41294;42.666;23.350;2023-06-26T07:16:15;94681.66;;;28.91;57.07
55424;BME280;41294;42.666;23.350;2023-06-26T07:18:40;94687.22;;;28.93;56.55
55424;BME280;41294;42.666;23.350;2023-06-26T07:21:06;94684.06;;;28.70;56.32
55424;BME280;41294;42.666;23.350;2023-06-26T07:23:32;94687.50;;;28.28;57.67
55424;BME280;41294;42.666;23.350;2023-06-26T07:25:57;94692.25;;;28.20;58.08
55424;BME280;41294;42.666;23.350;2023-06-26T07:28:22;94681.19;;;28.42;57.59
55424;BME280;41294;42.666;23.350;2023-06-26T07:30:48;94683.44;;;28.62;57.05
55424;BME280;41294;42.666;23.350;2023-06-26T07:33:14;94683.91;;;29.21;56.07
55424;BME280;41294;42.666;23.350;2023-06-26T07:35:39;94685.72;;;29.09;54.98
55424;BME280;41294;42.666;23.350;2023-06-26T07:38:05;94682.31;;;29.18;54.19
55424;BME280;41294;42.666;23.350;2023-06-26T07:40:30;94682.06;;;29.59;52.48
55424;BME280;41294;42.666;23.350;2023-06-26T07:42:55;94675.69;;;29.83;52.00
55424;BME280;41294;42.666;23.350;2023-06-26T07:45:23;94684.41;;;29.72;51.73
55424;BME280;41294;42.666;23.350;2023-06-26T07:47:48;94684.75;;;29.14;52.80
55424;BME280;41294;42.666;23.350;2023-06-26T07:50:14;94682.78;;;28.88;54.31
55424;BME280;41294;42.666;23.350;2023-06-26T07:52:44;94678.50;;;28.68;54.41
55424;BME280;41294;42.666;23.350;2023-06-26T07:55:10;94685.00;;;29.09;53.74
55424;BME280;41294;42.666;23.350;2023-06-26T07:57:35;94679.97;;;29.86;51.77
55424;BME280;41294;42.666;23.350;2023-06-26T08:00:00;94678.31;;;30.28;50.68
55424;BME280;41294;42.666;23.350;2023-06-26T08:02:26;94691.75;;;30.26;49.96
55424;BME280;41294;42.666;23.350;2023-06-26T08:04:51;94676.72;;;29.97;50.74
55424;BME280;41294;42.666;23.350;2023-06-26T08:07:17;94685.75;;;30.18;49.78
55424;BME280;41294;42.666;23.350;2023-06-26T08:09:43;94682.16;;;30.07;50.09
55424;BME280;41294;42.666;23.350;2023-06-26T08:12:09;94680.09;;;29.60;51.78
55424;BME280;41294;42.666;23.350;2023-06-26T08:14:35;94677.66;;;29.64;51.39
55424;BME280;41294;42.666;23.350;2023-06-26T08:17:00;94673.50;;;29.63;51.48
55424;BME280;41294;42.666;23.350;2023-06-26T08:19:26;94674.91;;;29.54;51.76
55424;BME280;41294;42.666;23.350;2023-06-26T08:21:52;94672.09;;;29.26;51.99
55424;BME280;41294;42.666;23.350;2023-06-26T08:24:17;94675.41;;;29.70;49.90
55424;BME280;41294;42.666;23.350;2023-06-26T08:26:44;94675.56;;;29.00;51.13
55424;BME280;41294;42.666;23.350;2023-06-26T08:29:10;94681.69;;;28.57;52.44
55424;BME280;41294;42.666;23.350;2023-06-26T08:31:37;94675.53;;;28.47;52.28
55424;BME280;41294;42.666;23.350;2023-06-26T08:34:04;94678.66;;;28.97;52.06
55424;BME280;41294;42.666;23.350;2023-06-26T08:36:30;94677.19;;;29.48;51.15
55424;BME280;41294;42.666;23.350;2023-06-26T08:38:55;94670.63;;;29.51;51.31
55424;BME280;41294;42.666;23.350;2023-06-26T08:41:22;94680.53;;;29.30;51.66
55424;BME280;41294;42.666;23.350;2023-06-26T08:43:48;94681.00;;;29.00;52.65
55424;BME280;41294;42.666;23.350;2023-06-26T08:46:15;94682.47;;;28.67;53.74
55424;BME280;41294;42.666;23.350;2023-06-26T08:48:42;94676.47;;;28.42;54.50
55424;BME280;41294;42.666;23.350;2023-06-26T08:51:12;94672.03;;;28.64;53.39
55424;BME280;41294;42.666;23.350;2023-06-26T08:53:52;94672.13;;;29.00;51.64
55424;BME280;41294;42.666;23.350;2023-06-26T08:56:21;94678.47;;;29.47;50.69
55424;BME280;41294;42.666;23.350;2023-06-26T08:58:47;94671.25;;;29.33;50.46
55424;BME280;41294;42.666;23.350;2023-06-26T09:01:13;94672.03;;;29.07;51.01
55424;BME280;41294;42.666;23.350;2023-06-26T09:03:39;94665.94;;;29.71;49.63
55424;BME280;41294;42.666;23.350;2023-06-26T09:06:06;94680.59;;;29.94;47.85
55424;BME280;41294;42.666;23.350;2023-06-26T09:08:32;94674.44;;;29.94;48.36
55424;BME280;41294;42.666;23.350;2023-06-26T09:10:58;94669.31;;;30.54;47.31
55424;BME280;41294;42.666;23.350;2023-06-26T09:13:23;94664.25;;;30.79;46.96
55424;BME280;41294;42.666;23.350;2023-06-26T09:15:49;94657.41;;;30.59;46.97
55424;BME280;41294;42.666;23.350;2023-06-26T09:18:18;94661.91;;;30.94;46.98
55424;BME280;41294;42.666;23.350;2023-06-26T09:20:48;94660.44;;;30.63;47.59
55424;BME280;41294;42.666;23.350;2023-06-26T09:23:13;94668.91;;;31.07;46.39
55424;BME280;41294;42.666;23.350;2023-06-26T09:25:40;94666.19;;;31.07;45.56
55424;BME280;41294;42.666;23.350;2023-06-26T09:28:05;94660.47;;;31.43;45.01
55424;BME280;41294;42.666;23.350;2023-06-26T09:30:34;94660.19;;;31.69;44.69
55424;BME280;41294;42.666;23.350;2023-06-26T09:33:17;94660.47;;;31.43;44.64
55424;BME280;41294;42.666;23.350;2023-06-26T09:35:43;94670.41;;;31.89;44.96
55424;BME280;41294;42.666;23.350;2023-06-26T09:38:09;94665.31;;;31.95;44.08
55424;BME280;41294;42.666;23.350;2023-06-26T09:40:34;94649.69;;;31.75;44.67
55424;BME280;41294;42.666;23.350;2023-06-26T09:43:07;94649.88;;;31.68;43.79
55424;BME280;41294;42.666;23.350;2023-06-26T09:45:33;94647.59;;;31.03;45.91
55424;BME280;41294;42.666;23.350;2023-06-26T09:48:00;94653.22;;;30.77;46.32
55424;BME280;41294;42.666;23.350;2023-06-26T09:50:28;94657.28;;;30.38;46.97
55424;BME280;41294;42.666;23.350;2023-06-26T09:52:54;94666.28;;;30.03;46.43
55424;BME280;41294;42.666;23.350;2023-06-26T09:55:20;94658.91;;;29.58;47.79
55424;BME280;41294;42.666;23.350;2023-06-26T09:57:49;94661.69;;;29.87;47.22
55424;BME280;41294;42.666;23.350;2023-06-26T10:00:16;94665.09;;;29.23;48.19
55424;BME280;41294;42.666;23.350;2023-06-26T10:02:41;94662.38;;;29.23;47.59
55424;BME280;41294;42.666;23.350;2023-06-26T10:05:06;94668.41;;;29.05;49.02
55424;BME280;41294;42.666;23.350;2023-06-26T10:07:33;94658.66;;;29.19;48.71
55424;BME280;41294;42.666;23.350;2023-06-26T10:10:01;94654.34;;;28.63;48.71
55424;BME280;41294;42.666;23.350;2023-06-26T10:12:29;94651.63;;;28.37;50.23
55424;BME280;41294;42.666;23.350;2023-06-26T10:14:58;94656.97;;;28.70;50.37
55424;BME280;41294;42.666;23.350;2023-06-26T10:17:28;94660.84;;;28.50;50.75
55424;BME280;41294;42.666;23.350;2023-06-26T10:19:58;94657.00;;;28.53;50.33
55424;BME280;41294;42.666;23.350;2023-06-26T10:22:27;94652.53;;;28.48;50.16
55424;BME280;41294;42.666;23.350;2023-06-26T10:24:58;94652.91;;;28.62;49.25
55424;BME280;41294;42.666;23.350;2023-06-26T10:27:28;94653.63;;;28.79;49.32
55424;BME280;41294;42.666;23.350;2023-06-26T10:29:56;94655.53;;;28.43;49.61
55424;BME280;41294;42.666;23.350;2023-06-26T10:32:25;94657.50;;;28.42;49.91
55424;BME280;41294;42.666;23.350;2023-06-26T10:34:52;94654.97;;;28.28;50.30
55424;BME280;41294;42.666;23.350;2023-06-26T10:37:18;94659.75;;;28.20;50.27
55424;BME280;41294;42.666;23.350;2023-06-26T10:39:47;94653.44;;;28.00;49.74
55424;BME280;41294;42.666;23.350;2023-06-26T10:42:16;94653.44;;;27.66;50.37
55424;BME280;41294;42.666;23.350;2023-06-26T10:44:43;94644.75;;;27.27;51.17
55424;BME280;41294;42.666;23.350;2023-06-26T10:47:10;94657.09;;;27.37;50.24
55424;BME280;41294;42.666;23.350;2023-06-26T10:49:37;94650.59;;;27.40;50.36
55424;BME280;41294;42.666;23.350;2023-06-26T10:52:05;94645.28;;;27.49;51.06
55424;BME280;41294;42.666;23.350;2023-06-26T10:54:32;94642.91;;;27.29;51.43
55424;BME280;41294;42.666;23.350;2023-06-26T10:56:58;94636.53;;;27.17;51.87
55424;BME280;41294;42.666;23.350;2023-06-26T10:59:26;94641.28;;;27.50;50.60
55424;BME280;41294;42.666;23.350;2023-06-26T11:02:00;94636.59;;;27.51;51.06
55424;BME280;41294;42.666;23.350;2023-06-26T11:04:44;94635.50;;;27.54;51.61
55424;BME280;41294;42.666;23.350;2023-06-26T11:10:28;94642.41;;;27.48;53.05
55424;BME280;41294;42.666;23.350;2023-06-26T11:12:46;94632.53;;;27.43;52.94
55424;BME280;41294;42.666;23.350;2023-06-26T11:15:15;94631.28;;;27.60;51.66
55424;BME280;41294;42.666;23.350;2023-06-26T11:17:42;94631.09;;;27.66;51.93
55424;BME280;41294;42.666;23.350;2023-06-26T11:20:10;94629.19;;;27.76;51.37
55424;BME280;41294;42.666;23.350;2023-06-26T11:22:38;94624.47;;;27.76;51.61
55424;BME280;41294;42.666;23.350;2023-06-26T11:25:04;94630.75;;;27.96;51.44
55424;BME280;41294;42.666;23.350;2023-06-26T11:27:43;94624.06;;;28.14;51.29
55424;BME280;41294;42.666;23.350;2023-06-26T11:30:10;94629.63;;;28.33;50.67
55424;BME280;41294;42.666;23.350;2023-06-26T11:32:37;94636.34;;;28.58;49.46
55424;BME280;41294;42.666;23.350;2023-06-26T11:35:03;94631.19;;;28.52;48.81
55424;BME280;41294;42.666;23.350;2023-06-26T11:37:31;94627.19;;;28.53;49.53
55424;BME280;41294;42.666;23.350;2023-06-26T11:39:57;94632.00;;;28.72;49.39
55424;BME280;41294;42.666;23.350;2023-06-26T11:42:23;94627.25;;;28.37;49.77
55424;BME280;41294;42.666;23.350;2023-06-26T11:44:50;94628.81;;;28.39;50.15
55424;BME280;41294;42.666;23.350;2023-06-26T11:47:20;94623.75;;;28.10;48.76
55424;BME280;41294;42.666;23.350;2023-06-26T11:49:47;94621.44;;;28.23;48.73
55424;BME280;41294;42.666;23.350;2023-06-26T11:52:14;94622.25;;;28.16;48.87
55424;BME280;41294;42.666;23.350;2023-06-26T11:54:40;94628.06;;;28.30;48.67
55424;BME280;41294;42.666;23.350;2023-06-26T11:57:06;94625.03;;;28.09;49.21
55424;BME280;41294;42.666;23.350;2023-06-26T11:59:34;94625.44;;;28.05;49.65
55424;BME280;41294;42.666;23.350;2023-06-26T12:02:00;94625.84;;;28.02;49.21
55424;BME280;41294;42.666;23.350;2023-06-26T12:04:25;94618.63;;;28.14;49.36
55424;BME280;41294;42.666;23.350;2023-06-26T12:06:52;94612.75;;;28.25;49.31
55424;BME280;41294;42.666;23.350;2023-06-26T12:09:22;94605.13;;;28.57;48.43
55424;BME280;41294;42.666;23.350;2023-06-26T12:11:52;94621.34;;;28.31;48.98
55424;BME280;41294;42.666;23.350;2023-06-26T12:14:20;94617.69;;;28.62;49.05
55424;BME280;41294;42.666;23.350;2023-06-26T12:16:45;94618.25;;;28.60;48.62
55424;BME280;41294;42.666;23.350;2023-06-26T12:19:12;94614.22;;;28.78;47.27
55424;BME280;41294;42.666;23.350;2023-06-26T12:24:07;94614.84;;;28.86;47.05
55424;BME280;41294;42.666;23.350;2023-06-26T12:26:34;94617.50;;;28.77;47.14
55424;BME280;41294;42.666;23.350;2023-06-26T12:29:07;94613.63;;;29.06;46.31
55424;BME280;41294;42.666;23.350;2023-06-26T12:31:33;94622.19;;;29.03;46.20
55424;BME280;41294;42.666;23.350;2023-06-26T12:33:59;94613.66;;;28.80;46.38
55424;BME280;41294;42.666;23.350;2023-06-26T12:36:25;94609.91;;;28.75;46.73
55424;BME280;41294;42.666;23.350;2023-06-26T12:38:53;94612.53;;;28.83;47.21
55424;BME280;41294;42.666;23.350;2023-06-26T12:41:18;94624.63;;;29.08;45.54
55424;BME280;41294;42.666;23.350;2023-06-26T12:43:45;94617.66;;;29.15;45.74
55424;BME280;41294;42.666;23.350;2023-06-26T12:46:11;94614.81;;;29.13;46.15
55424;BME280;41294;42.666;23.350;2023-06-26T12:48:44;94616.28;;;28.87;46.82
55424;BME280;41294;42.666;23.350;2023-06-26T12:51:15;94605.22;;;28.49;48.29
55424;BME280;41294;42.666;23.350;2023-06-26T12:53:40;94615.22;;;28.56;48.69
55424;BME280;41294;42.666;23.350;2023-06-26T12:56:07;94616.88;;;28.42;49.66